createdAt,value
2023-01-29T00:00:04.017Z,88.97
2023-01-29T00:02:40.594Z,87.29
2023-01-29T00:05:26.639Z,88.78
2023-01-29T00:07:55.764Z,89.21
2023-01-29T00:10:24.040Z,88.87
2023-01-29T00:12:53.052Z,88.51
2023-01-29T00:15:21.495Z,88.93
2023-01-29T00:17:49.428Z,89.34
2023-01-29T00:20:19.358Z,89.06
2023-01-29T00:22:47.479Z,89.42
2023-01-29T00:25:15.488Z,90.06
2023-01-29T00:27:46.407Z,89.67
2023-01-29T00:30:16.490Z,89.51
2023-01-29T00:32:44.912Z,90.04
2023-01-29T00:35:15.823Z,89.96
2023-01-29T00:37:45.106Z,90.08
2023-01-29T00:40:13.815Z,90.32
2023-01-29T00:42:59.719Z,89.99
2023-01-29T00:45:27.779Z,90.94
2023-01-29T00:47:55.779Z,90.47
2023-01-29T00:50:23.910Z,89.87
2023-01-29T00:52:54.621Z,90.23
2023-01-29T00:55:23.032Z,90.16
2023-01-29T00:57:54.033Z,90.34
2023-01-29T01:00:22.375Z,89.87
2023-01-29T01:03:07.593Z,90.79
2023-01-29T01:05:36.759Z,89.94
2023-01-29T01:08:27.624Z,90.50
2023-01-29T01:11:02.416Z,89.19
2023-01-29T01:13:33.451Z,88.28
2023-01-29T01:16:01.644Z,89.25
2023-01-29T01:18:34.028Z,88.79
2023-01-29T01:21:01.927Z,89.61
2023-01-29T01:23:31.380Z,88.53
2023-01-29T01:25:59.771Z,89.02
2023-01-29T01:28:28.107Z,90.22
2023-01-29T01:30:56.199Z,89.56
2023-01-29T01:33:24.743Z,90.30
2023-01-29T01:35:52.738Z,89.02
2023-01-29T01:38:20.649Z,89.15
2023-01-29T01:40:49.970Z,90.68
2023-01-29T01:43:17.839Z,90.05
2023-01-29T01:45:48.652Z,90.25
2023-01-29T01:48:21.242Z,91.05
2023-01-29T01:50:55.213Z,89.80
2023-01-29T01:53:28.962Z,90.13
2023-01-29T01:56:02.115Z,88.73
2023-01-29T01:58:35.011Z,89.48
2023-01-29T02:01:05.370Z,89.31
2023-01-29T02:03:54.345Z,89.36
2023-01-29T02:06:40.167Z,89.95
2023-01-29T02:09:33.672Z,91.23
2023-01-29T02:12:08.762Z,90.71
2023-01-29T02:14:40.397Z,91.76
2023-01-29T02:17:12.012Z,91.03
2023-01-29T02:19:49.147Z,91.75
2023-01-29T02:22:47.331Z,91.04
2023-01-29T02:25:49.642Z,91.08
2023-01-29T02:28:27.285Z,90.67
2023-01-29T02:31:05.864Z,89.92
2023-01-29T02:33:42.892Z,89.47
2023-01-29T02:36:20.669Z,90.66
2023-01-29T02:38:58.457Z,90.35
2023-01-29T02:41:36.106Z,90.40
2023-01-29T02:44:13.820Z,90.69
2023-01-29T02:46:50.972Z,90.61
2023-01-29T02:49:25.816Z,88.62
2023-01-29T02:52:04.313Z,87.76
2023-01-29T02:54:40.965Z,87.14
2023-01-29T02:57:16.255Z,86.51
2023-01-29T02:59:50.590Z,87.80
2023-01-29T03:02:25.018Z,86.58
2023-01-29T03:04:59.441Z,86.62
2023-01-29T03:07:45.877Z,86.36
2023-01-29T03:10:29.032Z,85.56
2023-01-29T03:13:01.703Z,86.34
2023-01-29T03:15:39.082Z,84.85
2023-01-29T03:18:41.319Z,85.82
2023-01-29T03:21:28.004Z,84.60
2023-01-29T03:24:17.337Z,83.91
2023-01-29T03:27:03.659Z,84.04
2023-01-29T03:29:56.911Z,84.32
2023-01-29T03:32:32.573Z,84.43
2023-01-29T03:35:05.572Z,83.98
2023-01-29T03:37:40.093Z,83.93
2023-01-29T03:40:09.190Z,83.97
2023-01-29T03:42:50.329Z,84.92
2023-01-29T03:45:27.009Z,84.46
2023-01-29T03:48:06.079Z,83.65
2023-01-29T03:50:41.324Z,83.92
2023-01-29T03:53:18.244Z,83.86
2023-01-29T03:55:55.932Z,84.37
2023-01-29T03:58:31.576Z,83.77
2023-01-29T04:01:04.501Z,83.30
2023-01-29T04:03:36.440Z,83.08
2023-01-29T04:06:12.119Z,83.40
2023-01-29T04:08:53.437Z,82.83
2023-01-29T04:11:23.989Z,82.59
2023-01-29T04:13:53.249Z,83.87
2023-01-29T04:16:25.835Z,83.04
2023-01-29T04:19:27.322Z,83.33
2023-01-29T04:22:04.830Z,82.84
2023-01-29T04:24:33.481Z,83.16
2023-01-29T04:27:14.207Z,82.94
2023-01-29T04:29:58.883Z,82.66
2023-01-29T04:32:32.922Z,82.52
2023-01-29T04:35:08.853Z,82.76
2023-01-29T04:37:41.421Z,81.88
2023-01-29T04:40:19.571Z,82.57
2023-01-29T04:43:00.547Z,81.59
2023-01-29T04:45:37.859Z,82.93
2023-01-29T04:48:20.121Z,83.20
2023-01-29T04:50:57.291Z,82.88
2023-01-29T04:53:34.105Z,81.87
2023-01-29T04:56:09.618Z,82.06
2023-01-29T04:58:41.715Z,81.42
2023-01-29T05:01:15.086Z,81.49
2023-01-29T05:03:47.824Z,81.60
2023-01-29T05:06:17.500Z,81.99
2023-01-29T05:08:47.065Z,81.43
2023-01-29T05:11:15.444Z,81.37
2023-01-29T05:13:44.331Z,81.84
2023-01-29T05:16:19.124Z,81.14
2023-01-29T05:18:47.983Z,81.42
2023-01-29T05:21:17.540Z,80.83
2023-01-29T05:23:53.192Z,80.63
2023-01-29T05:26:39.343Z,80.19
2023-01-29T05:29:07.530Z,80.20
2023-01-29T05:31:35.479Z,80.93
2023-01-29T05:34:03.465Z,80.84
2023-01-29T05:36:32.734Z,80.76
2023-01-29T05:39:00.702Z,80.82
2023-01-29T05:41:28.689Z,80.44
2023-01-29T05:43:56.644Z,80.17
2023-01-29T05:46:25.335Z,80.03
2023-01-29T05:48:53.923Z,81.19
2023-01-29T05:51:22.041Z,80.75
2023-01-29T05:53:51.351Z,80.99
2023-01-29T05:56:22.514Z,79.43
2023-01-29T05:58:50.833Z,80.68
2023-01-29T06:01:20.709Z,79.94
2023-01-29T06:03:49.222Z,80.63
2023-01-29T06:06:18.026Z,79.83
2023-01-29T06:08:45.908Z,79.74
2023-01-29T06:11:16.417Z,80.06
2023-01-29T06:13:44.431Z,80.05
2023-01-29T06:16:15.342Z,81.02
2023-01-29T06:18:43.355Z,80.15
2023-01-29T06:21:14.215Z,80.43
2023-01-29T06:23:42.437Z,80.64
2023-01-29T06:26:13.432Z,81.21
2023-01-29T06:28:45.126Z,81.21
2023-01-29T06:31:35.305Z,80.90
2023-01-29T06:34:01.277Z,81.43
2023-01-29T06:36:29.385Z,82.09
2023-01-29T06:38:57.340Z,81.80
2023-01-29T06:41:25.722Z,82.09
2023-01-29T06:43:55.245Z,81.69
2023-01-29T06:46:23.170Z,82.30
2023-01-29T06:48:51.181Z,81.85
2023-01-29T06:51:19.393Z,81.93
2023-01-29T06:53:47.515Z,82.25
2023-01-29T06:56:15.475Z,81.54
2023-01-29T06:58:44.086Z,81.63
2023-01-29T07:01:25.373Z,81.90
2023-01-29T07:04:01.248Z,83.18
2023-01-29T07:06:29.862Z,82.81
2023-01-29T07:09:00.221Z,81.74
2023-01-29T07:11:28.138Z,82.10
2023-01-29T07:13:56.061Z,81.92
2023-01-29T07:16:26.256Z,82.75
2023-01-29T07:18:54.604Z,82.60
2023-01-29T07:21:22.602Z,82.85
2023-01-29T07:23:50.749Z,81.97
2023-01-29T07:26:18.725Z,83.13
2023-01-29T07:28:51.316Z,84.14
2023-01-29T07:31:19.347Z,85.52
2023-01-29T07:33:48.693Z,85.89
2023-01-29T07:36:16.872Z,89.26
2023-01-29T07:38:44.735Z,87.22
2023-01-29T07:41:13.319Z,87.25
2023-01-29T07:43:43.820Z,87.08
2023-01-29T07:46:12.096Z,87.74
2023-01-29T07:48:40.069Z,87.85
2023-01-29T07:51:11.297Z,88.64
2023-01-29T07:53:39.564Z,88.70
2023-01-29T07:56:08.027Z,89.76
2023-01-29T07:58:36.866Z,90.68
2023-01-29T08:01:07.960Z,90.56
2023-01-29T08:03:36.006Z,91.39
2023-01-29T08:06:04.289Z,91.95
2023-01-29T08:08:33.771Z,92.55
2023-01-29T08:11:03.000Z,93.15
2023-01-29T08:13:32.363Z,93.13
2023-01-29T08:16:02.064Z,93.02
2023-01-29T08:18:31.508Z,92.25
2023-01-29T08:21:04.119Z,91.63
2023-01-29T08:23:33.517Z,92.70
2023-01-29T08:26:03.508Z,92.73
2023-01-29T08:28:31.732Z,92.54
2023-01-29T08:31:01.958Z,91.79
2023-01-29T08:33:38.369Z,92.68
2023-01-29T08:36:08.114Z,92.08
2023-01-29T08:38:38.052Z,92.13
2023-01-29T08:41:06.537Z,92.33
2023-01-29T08:43:35.252Z,92.49
2023-01-29T08:46:04.984Z,92.33
2023-01-29T08:48:33.784Z,92.47
2023-01-29T08:51:04.454Z,92.21
2023-01-29T08:53:32.722Z,92.04
2023-01-29T08:56:02.131Z,91.22
2023-01-29T08:58:30.256Z,91.87
2023-01-29T09:00:58.233Z,89.90
2023-01-29T09:03:26.323Z,91.02
2023-01-29T09:05:54.305Z,89.71
2023-01-29T09:08:22.257Z,90.49
2023-01-29T09:10:50.195Z,89.91
2023-01-29T09:13:19.507Z,89.98
2023-01-29T09:15:47.436Z,90.09
2023-01-29T09:18:17.508Z,89.97
2023-01-29T09:20:46.636Z,89.06
2023-01-29T09:23:18.372Z,89.27
2023-01-29T09:25:46.363Z,89.53
2023-01-29T09:28:14.380Z,88.90
2023-01-29T09:30:43.720Z,88.95
2023-01-29T09:33:11.796Z,87.74
2023-01-29T09:35:42.077Z,87.35
2023-01-29T09:38:10.166Z,87.99
2023-01-29T09:40:51.395Z,87.86
2023-01-29T09:43:21.906Z,86.43
2023-01-29T09:45:57.187Z,86.09
2023-01-29T09:48:28.759Z,85.92
2023-01-29T09:51:01.840Z,86.15
2023-01-29T09:53:36.286Z,85.51
2023-01-29T09:56:07.014Z,85.71
2023-01-29T09:58:37.598Z,85.82
2023-01-29T10:01:15.388Z,85.72
2023-01-29T10:03:56.589Z,84.78
2023-01-29T10:06:43.813Z,85.33
2023-01-29T10:09:57.304Z,84.72
2023-01-29T10:12:45.015Z,85.14
2023-01-29T10:15:26.261Z,84.85
2023-01-29T10:18:18.834Z,84.60
2023-01-29T10:21:00.208Z,84.10
2023-01-29T10:23:31.153Z,85.59
2023-01-29T10:26:00.189Z,84.59
2023-01-29T10:28:32.843Z,84.49
2023-01-29T10:31:03.319Z,84.10
2023-01-29T10:33:49.204Z,84.71
2023-01-29T10:36:29.700Z,85.22
2023-01-29T10:38:57.754Z,84.61
2023-01-29T10:41:37.496Z,83.91
2023-01-29T10:44:21.994Z,84.31
2023-01-29T10:47:04.380Z,84.05
2023-01-29T10:49:49.940Z,82.85
2023-01-29T10:52:34.754Z,82.78
2023-01-29T10:55:17.384Z,83.10
2023-01-29T10:57:59.554Z,82.78
2023-01-29T11:00:31.827Z,83.57
2023-01-29T11:03:26.405Z,82.95
2023-01-29T11:06:05.420Z,82.48
2023-01-29T11:08:41.446Z,82.78
2023-01-29T11:11:13.878Z,82.11
2023-01-29T11:13:45.781Z,82.31
2023-01-29T11:16:13.831Z,81.87
2023-01-29T11:18:57.115Z,80.72
2023-01-29T11:21:28.079Z,81.29
2023-01-29T11:24:12.900Z,83.12
2023-01-29T11:26:43.279Z,81.70
2023-01-29T11:29:35.580Z,82.03
2023-01-29T11:32:06.795Z,80.51
2023-01-29T11:34:34.858Z,80.77
2023-01-29T11:37:06.980Z,79.09
2023-01-29T11:39:34.847Z,79.38
2023-01-29T11:42:04.721Z,79.86
2023-01-29T11:44:34.196Z,80.45
2023-01-29T11:47:13.438Z,80.45
2023-01-29T11:49:46.317Z,79.54
2023-01-29T11:52:18.311Z,79.29
2023-01-29T11:54:48.826Z,79.04
2023-01-29T11:57:29.626Z,79.60
2023-01-29T12:00:00.832Z,79.19
2023-01-29T12:02:35.506Z,79.93
2023-01-29T12:05:07.615Z,79.64
2023-01-29T12:07:43.328Z,78.73
2023-01-29T12:10:31.329Z,78.20
2023-01-29T12:13:06.249Z,78.15
2023-01-29T12:15:34.483Z,78.03
2023-01-29T12:18:09.871Z,78.08
2023-01-29T12:20:42.556Z,77.84
2023-01-29T12:23:26.400Z,78.16
2023-01-29T12:26:01.674Z,77.72
2023-01-29T12:28:43.587Z,78.57
2023-01-29T12:31:30.039Z,78.71
2023-01-29T12:34:06.634Z,78.21
2023-01-29T12:36:39.761Z,78.92
2023-01-29T12:39:11.324Z,78.72
2023-01-29T12:41:46.290Z,78.76
2023-01-29T12:44:19.783Z,79.67
2023-01-29T12:46:52.822Z,79.66
2023-01-29T12:49:26.038Z,78.96
2023-01-29T12:52:00.733Z,80.12
2023-01-29T12:54:40.782Z,79.19
2023-01-29T12:57:15.178Z,80.13
2023-01-29T12:59:48.496Z,79.92
2023-01-29T13:02:30.535Z,79.16
2023-01-29T13:05:03.856Z,79.54
2023-01-29T13:07:34.590Z,79.95
2023-01-29T13:10:09.161Z,80.62
2023-01-29T13:12:40.846Z,79.61
2023-01-29T13:15:22.944Z,80.18
2023-01-29T13:17:55.486Z,80.77
2023-01-29T13:20:29.995Z,79.79
2023-01-29T13:23:07.212Z,79.50
2023-01-29T13:25:36.446Z,79.71
2023-01-29T13:28:04.671Z,78.17
2023-01-29T13:30:35.178Z,78.80
2023-01-29T13:33:11.783Z,78.91
2023-01-29T13:35:43.568Z,78.93
2023-01-29T13:38:26.580Z,80.21
2023-01-29T13:41:00.311Z,80.07
2023-01-29T13:43:32.989Z,80.74
2023-01-29T13:46:09.664Z,80.70
2023-01-29T13:48:43.325Z,81.15
2023-01-29T13:51:16.957Z,80.11
2023-01-29T13:53:52.904Z,81.07
2023-01-29T13:56:44.244Z,81.53
2023-01-29T13:59:26.947Z,81.61
2023-01-29T14:02:20.894Z,81.70
2023-01-29T14:04:48.953Z,81.70
2023-01-29T14:07:50.812Z,82.02
2023-01-29T14:10:21.704Z,81.58
2023-01-29T14:12:53.459Z,81.96
2023-01-29T14:15:32.898Z,81.70
2023-01-29T14:18:17.191Z,82.85
2023-01-29T14:21:18.644Z,82.94
2023-01-29T14:23:49.268Z,82.85
2023-01-29T14:26:28.088Z,83.41
2023-01-29T14:29:08.375Z,84.18
2023-01-29T14:31:44.818Z,85.13
2023-01-29T14:34:22.018Z,85.67
2023-01-29T14:36:55.274Z,85.71
2023-01-29T14:39:31.562Z,86.52
2023-01-29T14:42:00.869Z,86.74
2023-01-29T14:44:50.104Z,87.70
2023-01-29T14:47:20.251Z,86.89
2023-01-29T14:49:53.844Z,87.62
2023-01-29T14:52:26.663Z,87.51
2023-01-29T14:54:58.924Z,87.89
2023-01-29T14:57:30.374Z,88.53
2023-01-29T15:00:05.290Z,88.66
2023-01-29T15:02:40.150Z,89.74
2023-01-29T15:05:12.445Z,90.27
2023-01-29T15:07:45.984Z,91.16
2023-01-29T15:10:22.709Z,91.24
2023-01-29T15:12:58.153Z,92.18
2023-01-29T15:15:36.378Z,92.40
2023-01-29T15:18:09.117Z,91.48
2023-01-29T15:20:38.730Z,92.14
2023-01-29T15:23:26.187Z,91.84
2023-01-29T15:25:58.352Z,92.69
2023-01-29T15:28:27.769Z,93.66
2023-01-29T15:30:59.203Z,92.09
2023-01-29T15:33:28.026Z,92.29
2023-01-29T15:36:07.478Z,93.62
2023-01-29T15:38:36.370Z,93.58
2023-01-29T15:41:17.070Z,93.76
2023-01-29T15:43:46.859Z,93.42
2023-01-29T15:46:23.030Z,93.34
2023-01-29T15:48:55.170Z,94.14
2023-01-29T15:51:26.079Z,93.20
2023-01-29T15:53:56.071Z,94.19
2023-01-29T15:56:28.837Z,93.60
2023-01-29T15:58:59.951Z,93.05
2023-01-29T16:01:30.743Z,92.67
2023-01-29T16:04:02.445Z,93.05
2023-01-29T16:06:34.966Z,92.36
2023-01-29T16:09:03.332Z,92.17
2023-01-29T16:11:32.087Z,92.09
2023-01-29T16:14:00.474Z,92.14
2023-01-29T16:16:30.141Z,93.17
2023-01-29T16:19:00.852Z,93.26
2023-01-29T16:21:33.816Z,93.75
2023-01-29T16:24:06.071Z,93.36
2023-01-29T16:26:36.249Z,92.64
2023-01-29T16:29:06.537Z,93.79
2023-01-29T16:31:37.737Z,93.39
2023-01-29T16:34:10.127Z,93.02
2023-01-29T16:36:38.283Z,92.18
2023-01-29T16:39:15.041Z,92.93
2023-01-29T16:41:42.996Z,92.29
2023-01-29T16:44:33.678Z,93.04
2023-01-29T16:47:13.422Z,92.14
2023-01-29T16:49:47.177Z,91.72
2023-01-29T16:52:21.491Z,92.02
2023-01-29T16:54:49.406Z,92.47
2023-01-29T16:57:20.881Z,91.78
2023-01-29T16:59:50.656Z,92.71
2023-01-29T17:02:26.571Z,91.36
2023-01-29T17:04:59.605Z,91.80
2023-01-29T17:07:28.709Z,91.07
2023-01-29T17:09:59.985Z,91.67
2023-01-29T17:12:30.806Z,90.99
2023-01-29T17:15:00.084Z,90.52
2023-01-29T17:17:34.020Z,91.13
2023-01-29T17:20:13.964Z,90.77
2023-01-29T17:22:41.728Z,91.03
2023-01-29T17:25:14.084Z,91.44
2023-01-29T17:27:43.780Z,91.08
2023-01-29T17:30:15.636Z,91.13
2023-01-29T17:32:47.359Z,91.20
2023-01-29T17:35:17.477Z,91.30
2023-01-29T17:37:45.975Z,90.59
2023-01-29T17:40:25.396Z,90.65
2023-01-29T17:42:53.394Z,90.13
2023-01-29T17:45:21.335Z,89.68
2023-01-29T17:47:50.723Z,89.88
2023-01-29T17:50:23.698Z,89.89
2023-01-29T17:52:52.622Z,90.29
2023-01-29T17:55:20.793Z,90.11
2023-01-29T17:57:51.864Z,89.30
2023-01-29T18:00:23.087Z,89.77
2023-01-29T18:02:53.160Z,89.54
2023-01-29T18:05:21.167Z,89.94
2023-01-29T18:07:51.669Z,89.27
2023-01-29T18:10:22.971Z,89.57
2023-01-29T18:12:50.854Z,89.58
2023-01-29T18:15:19.376Z,89.59
2023-01-29T18:17:48.430Z,88.82
2023-01-29T18:20:25.646Z,89.21
2023-01-29T18:22:54.282Z,89.25
2023-01-29T18:25:24.153Z,88.51
2023-01-29T18:27:52.799Z,89.44
2023-01-29T18:30:21.307Z,90.31
2023-01-29T18:32:50.368Z,90.90
2023-01-29T18:35:18.884Z,90.93
2023-01-29T18:37:48.511Z,91.50
2023-01-29T18:40:17.326Z,92.35
2023-01-29T18:42:46.005Z,92.26
2023-01-29T18:45:15.242Z,92.54
2023-01-29T18:47:43.695Z,93.20
2023-01-29T18:50:12.824Z,93.70
2023-01-29T18:52:41.287Z,92.47
2023-01-29T18:55:11.247Z,92.49
2023-01-29T18:58:24.975Z,93.51
2023-01-29T19:00:28.268Z,93.50
2023-01-29T19:02:56.240Z,93.48
2023-01-29T19:05:25.597Z,93.53
2023-01-29T19:07:53.618Z,94.36
2023-01-29T19:10:22.921Z,95.31
2023-01-29T19:12:50.959Z,94.82
2023-01-29T19:15:21.383Z,94.98
2023-01-29T19:17:49.485Z,95.11
2023-01-29T19:20:17.717Z,94.85
2023-01-29T19:22:45.790Z,95.79
2023-01-29T19:25:13.908Z,96.33
2023-01-29T19:27:43.229Z,95.21
2023-01-29T19:30:12.945Z,95.00
2023-01-29T19:32:41.371Z,94.49
2023-01-29T19:35:09.747Z,94.93
2023-01-29T19:37:37.772Z,95.04
2023-01-29T19:40:08.089Z,94.57
2023-01-29T19:42:37.388Z,93.89
2023-01-29T19:45:08.265Z,94.33
2023-01-29T19:47:39.744Z,94.30
2023-01-29T19:50:08.968Z,94.07
2023-01-29T19:52:52.300Z,93.11
2023-01-29T19:55:21.374Z,92.60
2023-01-29T19:57:49.588Z,92.92
2023-01-29T20:00:20.091Z,92.42
2023-01-29T20:02:48.416Z,93.08
2023-01-29T20:05:20.274Z,92.57
2023-01-29T20:07:49.758Z,92.38
2023-01-29T20:10:18.249Z,92.58
2023-01-29T20:12:47.212Z,93.17
2023-01-29T20:15:15.994Z,93.48
2023-01-29T20:17:45.915Z,93.00
2023-01-29T20:20:14.793Z,93.80
2023-01-29T20:22:45.403Z,93.27
2023-01-29T20:25:14.520Z,94.20
2023-01-29T20:27:42.621Z,93.08
2023-01-29T20:30:11.876Z,93.11
2023-01-29T20:32:39.880Z,93.39
2023-01-29T20:35:10.630Z,93.63
2023-01-29T20:37:38.694Z,94.19
2023-01-29T20:40:07.571Z,93.84
2023-01-29T20:42:35.786Z,93.62
2023-01-29T20:45:04.149Z,93.56
2023-01-29T20:47:32.176Z,93.00
2023-01-29T20:50:04.385Z,93.84
2023-01-29T20:52:33.885Z,93.64
2023-01-29T20:55:01.998Z,93.85
2023-01-29T20:57:31.864Z,94.04
2023-01-29T21:00:00.120Z,93.77
2023-01-29T21:02:28.338Z,92.40
2023-01-29T21:04:56.700Z,92.28
2023-01-29T21:07:24.637Z,92.29
2023-01-29T21:09:53.932Z,92.69
2023-01-29T21:12:22.029Z,92.45
2023-01-29T21:14:50.054Z,92.34
2023-01-29T21:17:17.981Z,92.55
2023-01-29T21:19:46.364Z,92.36
2023-01-29T21:22:14.424Z,92.69
2023-01-29T21:24:42.385Z,92.24
2023-01-29T21:27:11.949Z,91.82
2023-01-29T21:29:39.882Z,91.82
2023-01-29T21:32:09.129Z,91.06
2023-01-29T21:34:37.116Z,91.41
2023-01-29T21:37:05.174Z,90.88
2023-01-29T21:39:33.272Z,91.20
2023-01-29T21:42:18.649Z,91.59
2023-01-29T21:44:47.925Z,91.83
2023-01-29T21:47:15.900Z,90.65
2023-01-29T21:49:45.404Z,91.67
2023-01-29T21:52:15.376Z,90.38
2023-01-29T21:54:48.875Z,90.76
2023-01-29T21:57:17.645Z,89.09
2023-01-29T21:59:51.641Z,89.92
2023-01-29T22:02:22.533Z,90.96
2023-01-29T22:04:52.278Z,90.97
2023-01-29T22:07:20.181Z,90.33
2023-01-29T22:09:51.116Z,91.29
2023-01-29T22:12:19.211Z,91.39
2023-01-29T22:14:48.525Z,91.43
2023-01-29T22:17:20.174Z,90.83
2023-01-29T22:19:48.424Z,91.51
2023-01-29T22:22:18.142Z,91.01
2023-01-29T22:24:46.629Z,91.97
2023-01-29T22:27:15.106Z,91.15
2023-01-29T22:29:43.595Z,91.43
2023-01-29T22:32:13.298Z,91.88
2023-01-29T22:34:41.506Z,92.21
2023-01-29T22:37:09.473Z,91.97
2023-01-29T22:39:37.607Z,92.59
2023-01-29T22:42:05.823Z,93.04
2023-01-29T22:44:33.754Z,93.00
2023-01-29T22:47:01.920Z,92.86
2023-01-29T22:49:32.275Z,92.94
2023-01-29T22:52:12.365Z,92.60
2023-01-29T22:54:41.420Z,92.61
2023-01-29T22:57:11.028Z,92.82
2023-01-29T22:59:39.398Z,93.24
2023-01-29T23:02:08.556Z,92.78
2023-01-29T23:04:38.175Z,93.36
2023-01-29T23:07:07.201Z,93.50
2023-01-29T23:09:35.145Z,92.97
2023-01-29T23:12:03.177Z,92.48
2023-01-29T23:14:31.093Z,92.94
2023-01-29T23:16:59.044Z,92.98
2023-01-29T23:19:27.079Z,93.34
2023-01-29T23:21:56.387Z,93.02
2023-01-29T23:24:24.704Z,93.10
2023-01-29T23:27:10.180Z,93.95
2023-01-29T23:29:38.300Z,93.89
2023-01-29T23:32:07.075Z,92.94
2023-01-29T23:34:35.091Z,93.32
2023-01-29T23:37:04.559Z,92.95
2023-01-29T23:39:32.881Z,93.05
2023-01-29T23:42:01.436Z,93.41
2023-01-29T23:44:29.611Z,92.61
2023-01-29T23:46:58.741Z,92.90
2023-01-29T23:49:26.744Z,93.01
2023-01-29T23:51:54.707Z,92.31
2023-01-29T23:54:24.003Z,92.33
2023-01-29T23:56:51.911Z,92.05
2023-01-29T23:59:20.027Z,91.98
